Time;durP1;ratioP1;P1;durP2;ratioP2;P2;SDS_P1;SDS_P2;PMS_P1;PMS_P2;Temp;Humidity;BMP_temperature;BMP_pressure;BME280_temperature;BME280_humidity;BME280_pressure;Samples;Min_cycle;Max_cycle;Signal;HPM_P1;HPM_P2
2023/05/25 00:01:58;;;;;;;1999.90;999.90;;;;;;;12.34;100.00;95580.34;5063399;28;20208;-63
2023/05/25 00:04:25;;;;;;;1999.90;999.90;;;;;;;12.31;100.00;95586.69;5063410;28;20211;-65
2023/05/25 00:06:52;;;;;;;1999.90;999.90;;;;;;;12.37;100.00;95585.81;5046674;28;20189;-64
2023/05/25 00:09:17;;;;;;;1999.90;999.90;;;;;;;12.31;100.00;95589.41;5046866;28;20205;-62
2023/05/25 00:11:43;;;;;;;1999.90;999.90;;;;;;;12.17;100.00;95587.59;5047319;28;20205;-62
2023/05/25 00:14:08;;;;;;;1999.90;999.90;;;;;;;12.22;100.00;95586.38;5063595;28;20208;-64
2023/05/25 00:16:36;;;;;;;1999.90;999.90;;;;;;;12.21;100.00;95593.03;5063510;28;20193;-63
2023/05/25 00:19:04;;;;;;;1999.90;999.90;;;;;;;12.24;100.00;95592.25;5063629;28;20211;-63
2023/05/25 00:21:29;;;;;;;1999.90;999.90;;;;;;;12.29;100.00;95591.78;5063537;28;20196;-63
2023/05/25 00:23:55;;;;;;;1999.90;999.90;;;;;;;12.22;100.00;95594.59;5046881;28;20202;-62
2023/05/25 00:26:20;;;;;;;1999.90;999.90;;;;;;;12.29;100.00;95584.34;5063592;28;20201;-62
2023/05/25 00:28:45;;;;;;;1999.90;999.90;;;;;;;12.28;100.00;95582.00;5063823;28;20228;-63
2023/05/25 00:31:11;;;;;;;1999.90;999.90;;;;;;;12.27;100.00;95586.72;5063521;28;20269;-63
2023/05/25 00:33:36;;;;;;;1999.90;999.90;;;;;;;12.28;100.00;95571.06;5063514;28;20201;-63
2023/05/25 00:36:02;;;;;;;1999.90;999.90;;;;;;;12.24;100.00;95576.56;5063390;28;20258;-63
2023/05/25 00:38:27;;;;;;;1999.90;999.90;;;;;;;12.19;100.00;95570.75;5047024;28;20177;-63
2023/05/25 00:40:56;;;;;;;1999.90;999.90;;;;;;;12.19;100.00;95565.28;5063192;28;20297;-63
2023/05/25 00:43:21;;;;;;;1999.90;999.90;;;;;;;12.08;100.00;95568.16;5063086;28;20219;-61
2023/05/25 00:45:48;;;;;;;1999.90;999.90;;;;;;;12.11;100.00;95563.81;5046776;28;20205;-60
2023/05/25 00:48:14;;;;;;;1999.90;999.90;;;;;;;12.11;100.00;95566.56;5046726;28;20220;-61
2023/05/25 00:50:42;;;;;;;1999.90;999.90;;;;;;;12.20;100.00;95566.88;5063139;28;20201;-62
2023/05/25 00:53:09;;;;;;;1999.90;999.90;;;;;;;12.19;100.00;95557.06;5062974;28;20196;-63
2023/05/25 00:55:39;;;;;;;1999.90;999.90;;;;;;;12.13;100.00;95554.00;5063609;28;20212;-62
2023/05/25 00:58:07;;;;;;;1999.90;999.90;;;;;;;12.04;100.00;95561.16;5049846;28;20193;-63
2023/05/25 01:00:36;;;;;;;1999.90;999.90;;;;;;;12.13;100.00;95564.22;5067287;28;20199;-62
2023/05/25 01:03:10;;;;;;;1999.90;999.90;;;;;;;12.10;100.00;95565.00;5066267;28;20212;-63
2023/05/25 01:05:41;;;;;;;1999.90;999.90;;;;;;;12.01;100.00;95564.72;5067103;28;20251;-63
2023/05/25 01:08:08;;;;;;;1999.90;999.90;;;;;;;12.01;100.00;95572.91;5067086;28;20203;-63
2023/05/25 01:10:37;;;;;;;1999.90;999.90;;;;;;;12.14;100.00;95571.22;5066599;28;20228;-63
2023/05/25 01:13:05;;;;;;;1999.90;999.90;;;;;;;12.08;100.00;95568.16;5066446;28;20194;-63
2023/05/25 01:15:31;;;;;;;1999.90;999.90;;;;;;;12.00;100.00;95571.38;5066605;28;20433;-63
2023/05/25 01:17:58;;;;;;;1999.90;999.90;;;;;;;12.03;100.00;95567.81;5066894;28;20200;-62
2023/05/25 01:20:28;;;;;;;1999.90;999.90;;;;;;;11.88;100.00;95563.69;5066303;28;20200;-62
2023/05/25 01:22:58;;;;;;;1999.90;999.90;;;;;;;11.95;100.00;95574.56;5066812;28;20237;-62
2023/05/25 01:25:49;;;;;;;1999.90;999.90;;;;;;;11.97;100.00;95563.97;5066277;28;20207;-62
2023/05/25 01:28:20;;;;;;;1999.90;999.90;;;;;;;11.93;100.00;95566.75;5049589;28;20278;-63
2023/05/25 01:30:48;;;;;;;1999.90;999.90;;;;;;;11.98;100.00;95565.53;5066559;28;20224;-62
2023/05/25 01:33:14;;;;;;;1999.90;999.90;;;;;;;12.00;100.00;95568.63;5065851;28;20205;-62
2023/05/25 01:35:40;;;;;;;1999.90;999.90;;;;;;;11.94;100.00;95562.03;5066151;28;20202;-62
2023/05/25 01:38:07;;;;;;;1999.90;999.90;;;;;;;11.97;100.00;95555.75;5066113;28;20207;-63
2023/05/25 01:40:32;;;;;;;1999.90;999.90;;;;;;;11.99;100.00;95569.84;5065986;28;20226;-63
2023/05/25 01:42:58;;;;;;;1999.90;999.90;;;;;;;11.95;100.00;95563.63;5049235;28;20223;-61
2023/05/25 01:45:23;;;;;;;1999.90;999.90;;;;;;;12.02;100.00;95574.50;5049269;28;20196;-62
2023/05/25 01:48:13;;;;;;;1999.90;999.90;;;;;;;11.96;100.00;95570.63;5049487;28;20232;-61
2023/05/25 01:51:01;;;;;;;1999.90;999.90;;;;;;;11.96;100.00;95565.16;5049729;28;20208;-61
2023/05/25 01:53:51;;;;;;;1999.90;999.90;;;;;;;12.03;100.00;95576.03;5049633;28;20196;-62
2023/05/25 01:56:18;;;;;;;1999.90;999.90;;;;;;;12.06;100.00;95569.75;5066443;28;20198;-62
2023/05/25 01:58:45;;;;;;;1999.90;999.90;;;;;;;12.05;100.00;95579.13;5065771;28;20193;-63
2023/05/25 02:01:16;;;;;;;1999.90;999.90;;;;;;;11.96;100.00;95576.13;5049384;28;20196;-63
2023/05/25 02:03:41;;;;;;;1999.90;999.90;;;;;;;11.95;100.00;95575.31;5065477;28;20235;-64
2023/05/25 02:06:07;;;;;;;1999.90;999.90;;;;;;;11.91;100.00;95573.84;5065862;28;20188;-64
2023/05/25 02:08:33;;;;;;;1999.90;999.90;;;;;;;11.94;100.00;95567.53;5065340;28;20193;-62
2023/05/25 02:10:58;;;;;;;1999.90;999.90;;;;;;;11.92;100.00;95564.44;5066129;28;20239;-62
2023/05/25 02:13:24;;;;;;;1999.90;999.90;;;;;;;11.97;100.00;95570.25;5065684;28;20228;-62
2023/05/25 02:15:49;;;;;;;1999.90;999.90;;;;;;;12.00;100.00;95560.44;5065293;28;20198;-63
2023/05/25 02:18:16;;;;;;;1999.90;999.90;;;;;;;11.97;100.00;95559.28;5048940;28;20201;-62
2023/05/25 02:20:42;;;;;;;1999.90;999.90;;;;;;;12.00;100.00;95554.94;5065733;28;20201;-62
2023/05/25 02:23:08;;;;;;;1999.90;999.90;;;;;;;12.11;100.00;95553.66;5065747;28;20209;-62
2023/05/25 02:25:33;;;;;;;1999.90;999.90;;;;;;;12.14;100.00;95557.53;5049011;28;20191;-62
2023/05/25 02:27:59;;;;;;;1999.90;999.90;;;;;;;12.13;100.00;95547.78;5065273;28;20245;-62
2023/05/25 02:30:25;;;;;;;1999.90;999.90;;;;;;;12.13;100.00;95542.31;5065051;28;20189;-62
2023/05/25 02:32:50;;;;;;;1999.90;999.90;;;;;;;12.16;100.00;95525.81;5048357;28;20239;-62
2023/05/25 02:35:15;;;;;;;1999.90;999.90;;;;;;;12.16;100.00;95531.28;5065107;28;20200;-62
2023/05/25 02:37:41;;;;;;;1999.90;999.90;;;;;;;12.09;100.00;95522.41;5048414;28;20246;-63
2023/05/25 02:40:08;;;;;;;1999.90;999.90;;;;;;;12.12;100.00;95524.31;5048607;28;20220;-61
2023/05/25 02:42:33;;;;;;;1999.90;999.90;;;;;;;12.17;100.00;95518.41;5065261;28;20241;-61
2023/05/25 02:44:58;;;;;;;1999.90;999.90;;;;;;;12.15;100.00;95502.38;5048705;28;20201;-62
2023/05/25 02:47:24;;;;;;;1999.90;999.90;;;;;;;12.12;100.00;95497.72;5064779;28;20201;-62
2023/05/25 02:49:51;;;;;;;1999.90;999.90;;;;;;;12.18;100.00;95490.59;5064843;28;20208;-62
2023/05/25 02:52:16;;;;;;;1999.90;999.90;;;;;;;12.14;100.00;95489.09;5064471;28;20236;-61
2023/05/25 02:54:41;;;;;;;1999.90;999.90;;;;;;;12.17;100.00;95482.81;5064488;28;20193;-61
2023/05/25 02:57:07;;;;;;;1999.90;999.90;;;;;;;12.14;100.00;95467.19;5064491;28;20260;-61
2023/05/25 02:59:33;;;;;;;1999.90;999.90;;;;;;;12.14;100.00;95469.94;5065000;28;20236;-61
2023/05/25 03:01:58;;;;;;;1999.90;999.90;;;;;;;12.20;100.00;95462.81;5064535;28;20215;-61
2023/05/25 03:04:24;;;;;;;1999.90;999.90;;;;;;;12.14;100.00;95457.03;5064599;28;20208;-61
2023/05/25 03:06:49;;;;;;;1999.90;999.90;;;;;;;12.08;100.00;95438.72;5047581;28;20201;-62
2023/05/25 03:09:14;;;;;;;1999.90;999.90;;;;;;;12.12;100.00;95433.97;5064829;28;20177;-62
2023/05/25 03:11:40;;;;;;;1999.90;999.90;;;;;;;12.15;100.00;95422.19;5048124;28;20207;-61
2023/05/25 03:14:05;;;;;;;1999.90;999.90;;;;;;;12.23;100.00;95415.44;5064615;28;20200;-61
2023/05/25 03:16:34;;;;;;;1999.90;999.90;;;;;;;12.22;100.00;95408.41;5047467;28;20198;-61
2023/05/25 03:19:00;;;;;;;1999.90;999.90;;;;;;;12.19;100.00;95398.28;5064534;28;20198;-61
2023/05/25 03:21:26;;;;;;;1999.90;999.90;;;;;;;12.20;100.00;95399.84;5063315;28;20231;-61
2023/05/25 03:23:51;;;;;;;1999.90;999.90;;;;;;;12.21;100.00;95380.25;5064488;28;20206;-62
2023/05/25 03:26:17;;;;;;;1999.90;999.90;;;;;;;12.18;100.00;95366.63;5064069;28;20223;-61
2023/05/25 03:28:43;;;;;;;1999.90;999.90;;;;;;;12.27;100.00;95350.44;5064453;28;20189;-61
2023/05/25 03:31:08;;;;;;;1999.90;999.90;;;;;;;12.21;100.00;95335.69;5048015;28;20197;-63
2023/05/25 03:33:34;;;;;;;1999.90;999.90;;;;;;;12.27;100.00;95318.38;5063984;28;20193;-61
2023/05/25 03:35:59;;;;;;;1999.90;999.90;;;;;;;12.24;100.00;95323.91;5063835;28;20201;-62
2023/05/25 03:38:24;;;;;;;1999.90;999.90;;;;;;;12.29;100.00;95318.75;5063848;28;20178;-60
2023/05/25 03:40:50;;;;;;;1999.90;999.90;;;;;;;12.27;100.00;95312.88;5047716;28;20200;-61
2023/05/25 03:43:15;;;;;;;1999.90;999.90;;;;;;;12.39;100.00;95325.22;5047722;28;20209;-61
2023/05/25 03:45:41;;;;;;;1999.90;999.90;;;;;;;12.37;100.00;95311.94;5064170;28;20208;-60
2023/05/25 03:48:06;;;;;;;1999.90;999.90;;;;;;;12.42;100.00;95324.41;5047205;28;20197;-60
2023/05/25 03:50:33;;;;;;;1999.90;999.90;;;;;;;12.40;100.00;95327.56;5063759;28;20235;-60
2023/05/25 03:52:58;;;;;;;1999.90;999.90;;;;;;;12.50;100.00;95329.31;5047341;28;20218;-61
2023/05/25 03:55:23;;;;;;;1999.90;999.90;;;;;;;12.44;100.00;95338.44;5047284;28;20265;-61
2023/05/25 03:57:49;;;;;;;1999.90;999.90;;;;;;;12.38;100.00;95351.03;5047204;28;20212;-61
2023/05/25 04:00:15;;;;;;;1999.90;999.90;;;;;;;12.36;100.00;95342.47;5063825;28;20253;-61
2023/05/25 04:02:41;;;;;;;1999.90;999.90;;;;;;;12.34;100.00;95344.84;5047279;28;20292;-61
2023/05/25 04:05:06;;;;;;;1999.90;999.90;;;;;;;12.34;100.00;95339.38;5064075;28;20249;-62
2023/05/25 04:07:32;;;;;;;1999.90;999.90;;;;;;;12.37;100.00;95344.03;5063909;28;20194;-62
2023/05/25 04:09:58;;;;;;;1999.90;999.90;;;;;;;12.47;100.00;95341.13;5063716;28;20209;-61
2023/05/25 04:12:24;;;;;;;1999.90;999.90;;;;;;;12.50;100.00;95351.22;5063906;28;20198;-62
2023/05/25 04:14:50;;;;;;;1999.90;999.90;;;;;;;12.52;100.00;95361.78;5063998;28;20235;-63
2023/05/25 04:17:16;;;;;;;1999.90;999.90;;;;;;;12.63;100.00;95370.59;5063636;28;20220;-63
2023/05/25 04:19:41;;;;;;;1999.90;999.90;;;;;;;12.60;100.00;95369.47;5063463;28;20279;-62
2023/05/25 04:22:07;;;;;;;1999.90;999.90;;;;;;;12.59;100.00;95378.09;5046972;28;20213;-62
2023/05/25 04:24:33;;;;;;;1999.90;999.90;;;;;;;12.54;100.00;95378.59;5063411;28;20197;-62
2023/05/25 04:26:58;;;;;;;1999.90;999.90;;;;;;;12.63;100.00;95378.81;5063331;28;20217;-62
2023/05/25 04:29:24;;;;;;;1999.90;999.90;;;;;;;12.70;100.00;95384.19;5047093;28;20193;-62
2023/05/25 04:31:50;;;;;;;1999.90;999.90;;;;;;;12.78;100.00;95391.09;5064502;28;20190;-63
2023/05/25 04:34:15;;;;;;;1999.90;999.90;;;;;;;12.78;100.00;95397.34;5067283;28;20185;-62
2023/05/25 04:36:42;;;;;;;1999.90;999.90;;;;;;;12.72;100.00;95398.25;5050383;28;20194;-62
2023/05/25 04:39:08;;;;;;;1999.90;999.90;;;;;;;12.72;100.00;95409.22;5050295;28;20244;-61
2023/05/25 04:41:34;;;;;;;1999.90;999.90;;;;;;;12.64;100.00;95399.56;5067555;28;20214;-61
2023/05/25 04:44:00;;;;;;;1999.90;999.90;;;;;;;12.85;100.00;95407.41;5066841;28;20225;-61
2023/05/25 04:46:25;;;;;;;1999.90;999.90;;;;;;;12.90;100.00;95409.69;5067007;28;20202;-62
2023/05/25 04:48:51;;;;;;;1999.90;999.90;;;;;;;12.95;100.00;95411.94;5067241;28;20197;-62
2023/05/25 04:51:16;;;;;;;1999.90;999.90;;;;;;;13.01;100.00;95429.50;5067011;28;20269;-61
2023/05/25 04:53:41;;;;;;;1999.90;999.90;;;;;;;12.91;100.00;95430.44;5050085;28;20197;-62
2023/05/25 04:56:07;;;;;;;1999.90;999.90;;;;;;;12.96;100.00;95435.44;5066661;28;20197;-62
2023/05/25 04:58:32;;;;;;;1999.90;999.90;;;;;;;13.05;100.00;95439.22;5050057;28;20197;-62
2023/05/25 05:00:58;;;;;;;1999.90;999.90;;;;;;;13.09;100.00;95450.13;5066807;28;20201;-63
2023/05/25 05:03:23;;;;;;;1999.90;999.90;;;;;;;13.11;100.00;95447.72;5066700;28;20228;-63
2023/05/25 05:05:49;;;;;;;1999.90;999.90;;;;;;;12.94;100.00;95449.53;5050189;28;20201;-63
2023/05/25 05:08:15;;;;;;;1999.90;999.90;;;;;;;13.00;100.00;95455.34;5066892;28;20312;-64
2023/05/25 05:10:40;;;;;;;1999.90;999.90;;;;;;;12.92;100.00;95456.63;5049568;28;20192;-63
2023/05/25 05:13:05;;;;;;;1999.90;999.90;;;;;;;12.93;100.00;95458.22;5066897;28;20202;-64
2023/05/25 05:15:31;;;;;;;1999.90;999.90;;;;;;;13.06;100.00;95453.69;5066650;28;20203;-64
2023/05/25 05:17:56;;;;;;;1999.90;999.90;;;;;;;13.13;100.00;95464.56;5066900;28;20233;-64
2023/05/25 05:20:21;;;;;;;1999.90;999.90;;;;;;;13.03;100.00;95462.75;5066646;28;20213;-64
2023/05/25 05:22:47;;;;;;;1999.90;999.90;;;;;;;12.95;100.00;95472.25;5049953;28;20213;-63
2023/05/25 05:25:12;;;;;;;1999.90;999.90;;;;;;;12.87;100.00;95465.34;5049813;28;20201;-63
2023/05/25 05:27:38;;;;;;;1999.90;999.90;;;;;;;13.00;100.00;95463.59;5049743;28;20205;-60
2023/05/25 05:30:04;;;;;;;1999.90;999.90;;;;;;;13.15;100.00;95454.72;5049709;28;20193;-60
2023/05/25 05:32:30;;;;;;;1999.90;999.90;;;;;;;13.09;100.00;95461.09;5066279;28;20194;-61
2023/05/25 05:34:55;;;;;;;1999.90;999.90;;;;;;;13.30;100.00;95458.00;5049912;28;20247;-63
2023/05/25 05:37:21;;;;;;;1999.90;999.90;;;;;;;13.17;100.00;95466.06;5049870;28;20221;-63
2023/05/25 05:39:46;;;;;;;1999.90;999.90;;;;;;;13.19;100.00;95460.16;5066366;28;20205;-62
2023/05/25 05:42:11;;;;;;;1999.90;999.90;;;;;;;13.23;100.00;95478.06;5066051;28;20198;-61
2023/05/25 05:44:37;;;;;;;1999.90;999.90;;;;;;;13.19;100.00;95465.63;5065228;28;20232;-63
2023/05/25 05:47:02;;;;;;;1999.90;999.90;;;;;;;13.44;100.00;95476.91;5066213;28;20197;-63
2023/05/25 05:49:28;;;;;;;1999.90;999.90;;;;;;;13.29;100.00;95487.38;5065694;28;20205;-64
2023/05/25 05:51:54;;;;;;;1999.90;999.90;;;;;;;13.40;100.00;95481.69;5066050;28;20202;-64
2023/05/25 05:54:19;;;;;;;1999.90;999.90;;;;;;;13.42;100.00;95495.78;5065591;28;20198;-63
2023/05/25 05:56:45;;;;;;;1999.90;999.90;;;;;;;13.45;100.00;95483.97;5049173;28;20198;-61
2023/05/25 05:59:10;;;;;;;1999.90;999.90;;;;;;;13.55;100.00;95495.97;5065622;28;20194;-63
2023/05/25 06:01:36;;;;;;;1999.90;999.90;;;;;;;13.65;100.00;95487.53;5065465;28;20194;-62
2023/05/25 06:04:01;;;;;;;1999.90;999.90;;;;;;;13.73;100.00;95499.91;5048975;28;20274;-62
2023/05/25 06:06:27;;;;;;;1999.90;999.90;;;;;;;13.64;100.00;95501.66;5065262;28;20204;-64
2023/05/25 06:08:53;;;;;;;1999.90;999.90;;;;;;;13.66;100.00;95504.78;5049298;28;20197;-64
2023/05/25 06:11:18;;;;;;;1999.90;999.90;;;;;;;13.45;100.00;95511.41;5048597;28;20204;-63
2023/05/25 06:13:43;;;;;;;1999.90;999.90;;;;;;;13.45;100.00;95507.88;5048720;28;20173;-63
2023/05/25 06:16:09;;;;;;;1999.90;999.90;;;;;;;13.59;100.00;95513.13;5065529;28;20269;-64
2023/05/25 06:18:34;;;;;;;1999.90;999.90;;;;;;;13.52;100.00;95505.81;5065442;28;20190;-64
2023/05/25 06:21:00;;;;;;;1999.90;999.90;;;;;;;13.48;100.00;95505.09;5048448;28;20202;-65
2023/05/25 06:23:26;;;;;;;1999.90;999.90;;;;;;;13.42;100.00;95506.75;5064957;28;20206;-64
2023/05/25 06:25:53;;;;;;;1999.90;999.90;;;;;;;13.38;100.00;95499.78;5048326;28;20193;-64
2023/05/25 06:28:18;;;;;;;1999.90;999.90;;;;;;;13.61;100.00;95506.03;5065074;28;20223;-64
2023/05/25 06:30:43;;;;;;;1999.90;999.90;;;;;;;13.57;100.00;95516.28;5064827;28;20198;-63
2023/05/25 06:33:09;;;;;;;1999.90;999.90;;;;;;;13.64;100.00;95498.91;5064814;28;20198;-65
2023/05/25 06:35:34;;;;;;;1999.90;999.90;;;;;;;13.72;100.00;95517.59;5064786;28;20205;-64
2023/05/25 06:38:00;;;;;;;1999.90;999.90;;;;;;;13.73;100.00;95524.63;5064829;28;20190;-63
2023/05/25 06:40:25;;;;;;;1999.90;999.90;;;;;;;13.89;100.00;95530.22;5064676;28;20217;-63
2023/05/25 06:42:51;;;;;;;1999.90;999.90;;;;;;;13.75;100.00;95549.69;5064648;28;20280;-64
2023/05/25 06:45:16;;;;;;;1999.90;999.90;;;;;;;13.81;100.00;95539.78;5064648;28;20188;-64
2023/05/25 06:47:42;;;;;;;1999.90;999.90;;;;;;;13.78;100.00;95546.09;5064907;28;20193;-63
2023/05/25 06:50:08;;;;;;;1999.90;999.90;;;;;;;13.80;100.00;95543.69;5048559;28;20221;-64
2023/05/25 06:52:33;;;;;;;1999.90;999.90;;;;;;;13.71;100.00;95550.94;5065186;28;20251;-63
2023/05/25 06:54:58;;;;;;;1999.90;999.90;;;;;;;13.85;100.00;95559.72;5047726;28;20190;-63
2023/05/25 06:57:24;;;;;;;1999.90;999.90;;;;;;;13.68;100.00;95549.03;5047837;28;20198;-63
2023/05/25 06:59:49;;;;;;;1999.90;999.90;;;;;;;13.80;100.00;95551.94;5048092;28;20194;-63
2023/05/25 07:02:15;;;;;;;1999.90;999.90;;;;;;;13.70;100.00;95566.66;5064089;28;20213;-62
2023/05/25 07:04:40;;;;;;;1999.90;999.90;;;;;;;13.64;100.00;95551.84;5047827;28;20190;-62
2023/05/25 07:07:06;;;;;;;1999.90;999.90;;;;;;;13.61;100.00;95563.66;5047880;28;20196;-62
2023/05/25 07:09:32;;;;;;;1999.90;999.90;;;;;;;13.35;100.00;95556.25;5047886;28;20197;-63
2023/05/25 07:11:57;;;;;;;1999.90;999.90;;;;;;;13.59;100.00;95544.09;5064753;28;20196;-61
2023/05/25 07:14:23;;;;;;;1999.90;999.90;;;;;;;13.88;100.00;95545.13;5064094;28;20185;-63
2023/05/25 07:16:48;;;;;;;1999.90;999.90;;;;;;;13.87;100.00;95559.28;5047960;28;20176;-63
2023/05/25 07:19:13;;;;;;;1999.90;999.90;;;;;;;13.77;100.00;95558.25;5064259;28;20193;-60
2023/05/25 07:21:39;;;;;;;1999.90;999.90;;;;;;;13.78;100.00;95556.31;5064005;28;20220;-61
2023/05/25 07:24:04;;;;;;;1999.90;999.90;;;;;;;13.75;100.00;95565.38;5064301;28;20212;-61
2023/05/25 07:26:32;;;;;;;1999.90;999.90;;;;;;;13.70;100.00;95566.66;5064328;28;20192;-62
2023/05/25 07:28:57;;;;;;;1999.90;999.90;;;;;;;13.82;100.00;95557.78;5064476;28;20190;-62
2023/05/25 07:31:23;;;;;;;1999.90;999.90;;;;;;;14.02;100.00;95566.06;5064053;28;20231;-64
2023/05/25 07:33:48;;;;;;;1999.90;999.90;;;;;;;14.00;100.00;95568.44;5063946;28;20194;-63
2023/05/25 07:36:14;;;;;;;1999.90;999.90;;;;;;;14.14;100.00;95579.97;5064046;28;20248;-63
2023/05/25 07:38:39;;;;;;;1999.90;999.90;;;;;;;14.02;100.00;95586.03;5064250;28;20197;-64
2023/05/25 07:41:05;;;;;;;1999.90;999.90;;;;;;;13.95;100.00;95597.16;5063743;28;20217;-63
2023/05/25 07:43:30;;;;;;;1999.90;999.90;;;;;;;14.14;100.00;95599.19;5064196;28;20220;-64
2023/05/25 07:45:55;;;;;;;1999.90;999.90;;;;;;;14.31;100.00;95606.31;5063665;28;20212;-65
2023/05/25 07:48:21;;;;;;;1999.90;999.90;;;;;;;14.54;100.00;95614.53;5064418;28;20161;-64
2023/05/25 07:50:46;;;;;;;1999.90;999.90;;;;;;;14.73;100.00;95627.50;5064277;28;20189;-63
2023/05/25 07:53:11;;;;;;;1999.90;999.90;;;;;;;14.50;100.00;95640.53;5063655;28;20261;-64
2023/05/25 07:55:37;;;;;;;1999.90;999.90;;;;;;;14.38;100.00;95638.41;5063746;28;20201;-63
2023/05/25 07:58:02;;;;;;;1999.90;999.90;;;;;;;14.47;100.00;95636.66;5047223;28;20194;-63
2023/05/25 08:00:28;;;;;;;1999.90;999.90;;;;;;;14.45;100.00;95646.50;5047395;28;20200;-63
2023/05/25 08:02:54;;;;;;;1999.90;999.90;;;;;;;14.57;100.00;95646.63;5046756;28;20201;-63
2023/05/25 08:05:20;;;;;;;1999.90;999.90;;;;;;;14.58;100.00;95642.72;5063645;28;20190;-64
2023/05/25 08:07:45;;;;;;;1999.90;999.90;;;;;;;14.24;100.00;95655.91;5066690;28;20196;-63
2023/05/25 08:10:10;;;;;;;1999.90;999.90;;;;;;;14.26;100.00;95647.25;5067441;28;20221;-67
2023/05/25 08:12:36;;;;;;;1999.90;999.90;;;;;;;14.59;100.00;95633.25;5051804;28;20188;-66
2023/05/25 08:15:01;;;;;;;1999.90;999.90;;;;;;;14.50;100.00;95657.78;5067759;28;20190;-65
2023/05/25 08:17:27;;;;;;;1999.90;999.90;;;;;;;14.22;100.00;95672.06;5051579;28;20189;-66
2023/05/25 08:19:55;;;;;;;1999.90;999.90;;;;;;;14.82;100.00;95657.94;5067958;28;20166;-65
2023/05/25 08:22:20;;;;;;;1999.90;999.90;;;;;;;14.69;100.00;95659.78;5067757;28;20209;-65
2023/05/25 08:24:46;;;;;;;1999.90;999.90;;;;;;;14.74;100.00;95666.72;5067774;28;20279;-66
2023/05/25 08:27:11;;;;;;;1999.90;999.90;;;;;;;14.88;100.00;95672.75;5051117;28;20228;-66
2023/05/25 08:29:36;;;;;;;1999.90;999.90;;;;;;;14.91;100.00;95677.41;5050735;28;20274;-65
2023/05/25 08:32:02;;;;;;;1999.90;999.90;;;;;;;15.09;100.00;95671.53;5067457;28;20264;-64
2023/05/25 08:34:28;;;;;;;1999.90;999.90;;;;;;;15.06;100.00;95678.66;5050485;28;20194;-65
2023/05/25 08:36:56;;;;;;;1999.90;999.90;;;;;;;15.17;100.00;95690.22;5067759;28;20201;-63
2023/05/25 08:39:21;;;;;;;1999.90;999.90;;;;;;;15.12;100.00;95682.44;5067118;28;20269;-64
2023/05/25 08:41:49;;;;;;;1999.90;999.90;;;;;;;15.04;100.00;95686.53;5050623;28;20199;-65
2023/05/25 08:44:15;;;;;;;1999.90;999.90;;;;;;;14.71;100.00;95684.84;5067446;28;20182;-63
2023/05/25 08:46:41;;;;;;;1999.90;999.90;;;;;;;15.12;100.00;95696.19;5067366;28;20228;-65
2023/05/25 08:49:11;;;;;;;1999.90;999.90;;;;;;;15.12;100.00;95698.19;5067450;28;20173;-64
2023/05/25 08:51:51;;;;;;;1999.90;999.90;;;;;;;15.19;100.00;95701.56;5067363;28;20197;-64
2023/05/25 08:54:18;;;;;;;1999.90;999.90;;;;;;;15.25;100.00;95701.81;5066665;28;20260;-62
2023/05/25 08:56:49;;;;;;;1999.90;999.90;;;;;;;15.02;100.00;95705.47;5066861;28;20197;-63
2023/05/25 08:59:28;;;;;;;1999.90;999.90;;;;;;;15.35;100.00;95707.16;5066488;28;20201;-63
2023/05/25 09:02:04;;;;;;;1999.90;999.90;;;;;;;15.21;100.00;95710.16;5050147;28;20198;-64
2023/05/25 09:04:32;;;;;;;1999.90;999.90;;;;;;;15.14;100.00;95707.56;5067207;28;20190;-64
2023/05/25 09:06:58;;;;;;;1999.90;999.90;;;;;;;15.23;100.00;95727.00;5067011;28;20265;-64
2023/05/25 09:09:23;;;;;;;1999.90;999.90;;;;;;;15.23;100.00;95721.50;5050524;28;20208;-63
2023/05/25 09:11:49;;;;;;;1999.90;999.90;;;;;;;15.18;100.00;95718.47;5050324;28;20208;-64
2023/05/25 09:14:15;;;;;;;1999.90;999.90;;;;;;;14.98;100.00;95707.50;5049693;28;20276;-64
2023/05/25 09:16:40;;;;;;;1999.90;999.90;;;;;;;15.38;100.00;95711.81;5049998;28;20204;-63
2023/05/25 09:19:05;;;;;;;1999.90;999.90;;;;;;;15.37;100.00;95726.00;5049704;28;20204;-63
2023/05/25 09:21:31;;;;;;;1999.90;999.90;;;;;;;15.20;100.00;95729.84;5049600;28;20208;-63
2023/05/25 09:23:58;;;;;;;1999.90;999.90;;;;;;;15.56;100.00;95739.69;5049486;28;20221;-63
2023/05/25 09:26:25;;;;;;;1999.90;999.90;;;;;;;15.37;100.00;95737.75;5066406;28;20205;-63
2023/05/25 09:28:50;;;;;;;1999.90;999.90;;;;;;;15.52;100.00;95738.25;5066264;28;20213;-62
2023/05/25 09:31:16;;;;;;;1999.90;999.90;;;;;;;15.31;100.00;95750.47;5049755;28;20193;-62
2023/05/25 09:33:42;;;;;;;1999.90;999.90;;;;;;;15.08;100.00;95736.75;5049713;28;20209;-62
2023/05/25 09:36:09;;;;;;;1999.90;999.90;;;;;;;15.37;100.00;95742.50;5049441;28;20253;-62
2023/05/25 09:38:35;;;;;;;1999.90;999.90;;;;;;;15.19;100.00;95745.56;5065995;28;20178;-63
2023/05/25 09:41:00;;;;;;;1999.90;999.90;;;;;;;15.22;100.00;95746.69;5050031;28;20270;-63
2023/05/25 09:43:26;;;;;;;1999.90;999.90;;;;;;;15.42;100.00;95753.78;5065901;28;20210;-63
2023/05/25 09:45:51;;;;;;;1999.90;999.90;;;;;;;15.44;100.00;95756.13;5065780;28;20193;-62
2023/05/25 09:48:17;;;;;;;1999.90;999.90;;;;;;;15.82;100.00;95757.25;5066213;28;20231;-64
2023/05/25 09:50:43;;;;;;;1999.90;999.90;;;;;;;16.18;100.00;95761.50;5049234;28;20194;-65
2023/05/25 09:53:09;;;;;;;1999.90;999.90;;;;;;;16.24;100.00;95768.03;5065779;28;20190;-63
2023/05/25 09:55:36;;;;;;;1999.90;999.90;;;;;;;16.11;100.00;95774.69;5049131;28;20228;-64
2023/05/25 09:58:01;;;;;;;1999.90;999.90;;;;;;;16.09;100.00;95758.56;5065846;28;20209;-64
2023/05/25 10:00:27;;;;;;;1999.90;999.90;;;;;;;15.99;100.00;95762.34;5065527;28;20194;-65
2023/05/25 10:02:53;;;;;;;1999.90;999.90;;;;;;;16.06;100.00;95762.19;5065568;28;20209;-64
2023/05/25 10:05:18;;;;;;;1999.90;999.90;;;;;;;16.29;100.00;95775.03;5048937;28;20269;-64
2023/05/25 10:07:45;;;;;;;1999.90;999.90;;;;;;;16.14;100.00;95760.03;5065417;28;20197;-64
2023/05/25 10:10:14;;;;;;;1999.90;999.90;;;;;;;15.99;100.00;95778.88;5048813;28;20213;-64
2023/05/25 10:12:41;;;;;;;1999.90;999.90;;;;;;;16.37;100.00;95766.16;5065687;28;20190;-65
2023/05/25 10:15:08;;;;;;;1999.90;999.90;;;;;;;15.94;100.00;95775.84;5065915;28;20204;-64
2023/05/25 10:17:34;;;;;;;1999.90;999.90;;;;;;;16.46;100.00;95768.31;5048039;28;20201;-61
2023/05/25 10:20:04;;;;;;;1999.90;999.90;;;;;;;16.54;100.00;95772.47;5065342;28;20198;-62
2023/05/25 10:22:35;;;;;;;1999.90;999.90;;;;;;;16.86;100.00;95785.44;5065376;28;20221;-64
2023/05/25 10:25:16;;;;;;;1999.90;999.90;;;;;;;16.49;100.00;95777.75;5065319;28;20197;-64
2023/05/25 10:28:02;;;;;;;1999.90;999.90;;;;;;;16.53;100.00;95795.72;5065501;28;20269;-65
2023/05/25 10:30:27;;;;;;;1999.90;999.90;;;;;;;16.71;100.00;95776.00;5047720;28;20232;-64
2023/05/25 10:32:56;;;;;;;1999.90;999.90;;;;;;;16.56;100.00;95794.09;5048879;28;20189;-63
2023/05/25 10:35:23;;;;;;;1999.90;999.90;;;;;;;16.76;100.00;95780.97;5065226;28;20201;-65
2023/05/25 10:37:51;;;;;;;1999.90;999.90;;;;;;;16.55;100.00;95771.25;5047903;28;20200;-64
2023/05/25 10:40:17;;;;;;;1999.90;999.90;;;;;;;16.98;100.00;95781.97;5064865;28;20228;-64
2023/05/25 10:42:44;;;;;;;1999.90;999.90;;;;;;;16.70;100.00;95782.69;5064770;28;20212;-64
2023/05/25 10:45:10;;;;;;;1999.90;999.90;;;;;;;16.78;100.00;95775.81;5065019;28;20239;-65